Time;durP1;ratioP1;P1;durP2;ratioP2;P2;SDS_P1;SDS_P2;PMS_P1;PMS_P2;Temp;Humidity;BMP_temperature;BMP_pressure;BME280_temperature;BME280_humidity;BME280_pressure;Samples;Min_cycle;Max_cycle;Signal;HPM_P1;HPM_P2
2023/01/06 00:00:04;;;;;;;;;;;14.50;72.10;;;;;;10376123;28;90022;-60
2023/01/06 00:05:06;;;;;;;;;;;14.50;72.10;;;;;;10376830;28;89354;-60
2023/01/06 00:10:08;;;;;;;;;;;14.50;72.20;;;;;;10376445;28;89961;-60
2023/01/06 00:15:10;;;;;;;;;;;14.50;72.20;;;;;;10377491;28;90561;-60
2023/01/06 00:20:12;;;;;;;;;;;14.50;72.20;;;;;;10376944;28;89995;-60
2023/01/06 00:25:14;;;;;;;;;;;14.50;72.40;;;;;;10375856;28;89844;-60
2023/01/06 00:30:15;;;;;;;;;;;14.50;72.30;;;;;;10376438;28;89533;-60
2023/01/06 00:35:17;;;;;;;;;;;14.40;72.30;;;;;;10375702;28;89880;-60
2023/01/06 00:40:19;;;;;;;;;;;14.50;72.40;;;;;;10375013;28;90016;-61
2023/01/06 00:45:21;;;;;;;;;;;14.50;72.50;;;;;;10375412;28;89975;-61
2023/01/06 00:50:23;;;;;;;;;;;14.40;72.40;;;;;;10374883;28;88399;-61
2023/01/06 00:55:24;;;;;;;;;;;14.40;72.40;;;;;;10375792;28;89178;-60
2023/01/06 01:00:26;;;;;;;;;;;14.40;73.40;;;;;;10375992;28;89631;-59
2023/01/06 01:05:28;;;;;;;;;;;14.50;72.40;;;;;;10374655;28;89271;-60
2023/01/06 01:10:30;;;;;;;;;;;14.40;72.40;;;;;;10374883;28;88866;-60
2023/01/06 01:15:31;;;;;;;;;;;14.40;72.40;;;;;;10374003;28;89863;-60
2023/01/06 01:20:33;;;;;;;;;;;14.40;72.40;;;;;;10373461;28;89784;-60
2023/01/06 01:25:35;;;;;;;;;;;14.40;72.40;;;;;;10373936;28;88885;-60
2023/01/06 01:30:37;;;;;;;;;;;14.40;72.30;;;;;;10375169;28;89189;-60
2023/01/06 01:35:39;;;;;;;;;;;14.50;72.40;;;;;;10372727;28;88785;-60
2023/01/06 01:40:45;;;;;;;;;;;14.50;72.30;;;;;;10374333;28;89908;-60
2023/01/06 01:45:50;;;;;;;;;;;14.50;72.20;;;;;;10372166;28;88988;-60
2023/01/06 01:50:54;;;;;;;;;;;14.50;72.10;;;;;;10373430;28;88851;-60
2023/01/06 01:55:57;;;;;;;;;;;14.50;72.10;;;;;;10372976;28;88754;-60
2023/01/06 02:06:21;;;;;;;;;;;14.60;72.10;;;;;;10262795;22;88702;-61
2023/01/06 02:11:24;;;;;;;;;;;14.60;72.10;;;;;;10211627;28;88509;-61
2023/01/06 02:16:34;;;;;;;;;;;14.60;72.10;;;;;;10210512;28;87606;-61
2023/01/06 02:21:36;;;;;;;;;;;14.60;72.10;;;;;;10213754;28;87000;-61
2023/01/06 02:26:50;;;;;;;;;;;14.60;72.10;;;;;;10217754;28;88543;-61
2023/01/06 02:32:10;;;;;;;;;;;14.50;72.00;;;;;;10216990;28;87530;-61
2023/01/06 02:37:12;;;;;;;;;;;14.50;72.00;;;;;;10216362;28;87416;-61
2023/01/06 02:42:32;;;;;;;;;;;14.50;72.00;;;;;;10217793;28;87565;-61
2023/01/06 02:47:33;;;;;;;;;;;14.50;72.10;;;;;;10217930;28;87240;-60
2023/01/06 02:52:41;;;;;;;;;;;14.50;72.10;;;;;;10215596;28;87184;-61
2023/01/06 02:57:43;;;;;;;;;;;14.50;72.10;;;;;;10216337;28;87543;-61
2023/01/06 03:02:48;;;;;;;;;;;14.50;72.20;;;;;;10216322;28;88310;-61
2023/01/06 03:07:51;;;;;;;;;;;14.50;72.10;;;;;;10216867;28;88024;-61
2023/01/06 03:12:52;;;;;;;;;;;14.50;72.20;;;;;;10217033;28;88558;-61
2023/01/06 03:17:54;;;;;;;;;;;14.50;72.20;;;;;;10215078;28;87731;-61
2023/01/06 03:22:56;;;;;;;;;;;14.50;72.20;;;;;;10215549;28;88105;-61
2023/01/06 03:27:57;;;;;;;;;;;14.50;72.20;;;;;;10214885;28;88519;-61
2023/01/06 03:33:07;;;;;;;;;;;14.50;72.20;;;;;;10215825;28;87767;-61
2023/01/06 03:38:12;;;;;;;;;;;14.50;72.20;;;;;;10215996;28;88612;-61
2023/01/06 03:43:52;;;;;;;;;;;14.50;72.30;;;;;;10216405;28;87340;-60
2023/01/06 03:49:02;;;;;;;;;;;14.50;72.20;;;;;;10091299;28;88859;-61
2023/01/06 03:54:16;;;;;;;;;;;14.50;72.20;;;;;;10191145;28;87642;-60
2023/01/06 03:59:20;;;;;;;;;;;14.40;72.20;;;;;;10215911;28;88488;-60
2023/01/06 04:04:21;;;;;;;;;;;14.40;72.20;;;;;;10215290;28;88595;-61
2023/01/06 04:09:23;;;;;;;;;;;14.50;72.20;;;;;;10215763;28;87601;-61
2023/01/06 04:14:25;;;;;;;;;;;14.40;72.10;;;;;;10215587;28;87272;-61
2023/01/06 04:19:26;;;;;;;;;;;14.40;72.10;;;;;;10214457;28;88543;-60
2023/01/06 04:24:28;;;;;;;;;;;14.40;72.20;;;;;;10215125;28;87292;-61
2023/01/06 04:29:30;;;;;;;;;;;14.50;72.10;;;;;;10214995;28;88286;-61
2023/01/06 04:34:32;;;;;;;;;;;14.50;72.00;;;;;;10214827;28;87560;-61
2023/01/06 04:39:33;;;;;;;;;;;14.50;72.00;;;;;;10212290;28;88064;-61
2023/01/06 04:44:35;;;;;;;;;;;14.60;72.00;;;;;;10213538;28;88536;-61
2023/01/06 06:07:23;;;;;;;;;;;14.50;72.00;;;;;;10179356;28;87801;-62
2023/01/06 06:12:24;;;;;;;;;;;14.50;72.00;;;;;;10178997;28;87683;-62
2023/01/06 06:17:26;;;;;;;;;;;14.50;72.00;;;;;;10178923;28;88394;-62
2023/01/06 06:22:28;;;;;;;;;;;14.40;72.10;;;;;;10177876;28;89454;-62
2023/01/06 06:27:30;;;;;;;;;;;14.40;72.10;;;;;;10177489;28;88161;-62
2023/01/06 06:32:31;;;;;;;;;;;14.40;72.10;;;;;;10176621;28;89026;-62
2023/01/06 06:37:33;;;;;;;;;;;14.40;72.20;;;;;;10176607;28;89973;-62
2023/01/06 06:42:35;;;;;;;;;;;14.40;72.10;;;;;;10175325;28;90355;-62
2023/01/06 06:47:37;;;;;;;;;;;14.40;72.20;;;;;;10176455;28;88834;-62
2023/01/06 06:52:38;;;;;;;;;;;14.40;72.20;;;;;;10176510;28;89064;-62
2023/01/06 06:57:40;;;;;;;;;;;14.40;72.20;;;;;;10177326;28;90190;-62
2023/01/06 07:02:42;;;;;;;;;;;14.40;73.30;;;;;;10180210;28;89146;-62
2023/01/06 07:07:44;;;;;;;;;;;14.50;72.20;;;;;;10216728;28;89343;-62
2023/01/06 07:12:45;;;;;;;;;;;14.50;72.20;;;;;;10197934;28;89577;-62
2023/01/06 07:17:47;;;;;;;;;;;14.50;72.10;;;;;;10216117;28;88171;-62
2023/01/06 07:22:49;;;;;;;;;;;14.50;72.00;;;;;;10213229;28;89208;-62
2023/01/06 07:27:52;;;;;;;;;;;14.50;72.10;;;;;;10214864;28;89710;-62
2023/01/06 07:32:53;;;;;;;;;;;14.50;72.00;;;;;;10214113;28;89740;-62
2023/01/06 07:38:00;;;;;;;;;;;14.50;72.10;;;;;;10214139;28;88958;-62
2023/01/06 07:43:03;;;;;;;;;;;14.60;72.10;;;;;;10214859;28;89865;-63
2023/01/06 07:48:05;;;;;;;;;;;14.50;72.10;;;;;;10214655;28;89949;-62
2023/01/06 07:53:07;;;;;;;;;;;14.50;72.20;;;;;;10214767;28;88885;-62
2023/01/06 07:58:09;;;;;;;;;;;14.50;72.20;;;;;;10213305;28;89381;-62
2023/01/06 08:03:11;;;;;;;;;;;14.50;72.20;;;;;;10212849;28;89883;-62
2023/01/06 08:08:13;;;;;;;;;;;14.50;72.20;;;;;;10214764;28;89722;-62
2023/01/06 08:13:15;;;;;;;;;;;14.50;72.20;;;;;;10196221;28;90464;-62
2023/01/06 08:18:18;;;;;;;;;;;14.50;72.20;;;;;;10195008;28;89437;-62
2023/01/06 08:23:20;;;;;;;;;;;14.50;72.20;;;;;;10212383;28;90957;-62
2023/01/06 08:28:22;;;;;;;;;;;14.50;72.20;;;;;;10212372;28;89262;-62
2023/01/06 08:33:24;;;;;;;;;;;14.50;72.20;;;;;;10212836;28;88966;-62
2023/01/06 08:38:26;;;;;;;;;;;14.50;72.20;;;;;;10213319;28;89220;-62
2023/01/06 08:43:28;;;;;;;;;;;14.50;72.20;;;;;;10195478;28;89963;-62
2023/01/06 08:48:30;;;;;;;;;;;14.50;72.30;;;;;;10194819;28;88855;-63
2023/01/06 08:53:32;;;;;;;;;;;14.40;72.20;;;;;;10212043;28;90009;-62
2023/01/06 08:58:34;;;;;;;;;;;14.50;72.20;;;;;;10212733;28;88161;-62
2023/01/06 09:03:36;;;;;;;;;;;14.50;72.30;;;;;;10194760;28;90060;-62
2023/01/06 09:08:38;;;;;;;;;;;14.50;72.20;;;;;;10210283;28;88790;-62
2023/01/06 09:13:39;;;;;;;;;;;14.40;72.20;;;;;;10211442;28;90747;-62
2023/01/06 09:18:47;;;;;;;;;;;14.50;72.20;;;;;;10211943;28;88163;-62
2023/01/06 09:23:49;;;;;;;;;;;14.50;72.20;;;;;;10210741;28;89948;-62
2023/01/06 09:28:51;;;;;;;;;;;14.40;72.20;;;;;;10211674;28;90081;-62
2023/01/06 09:33:53;;;;;;;;;;;14.40;72.20;;;;;;10209476;28;89069;-62
2023/01/06 09:38:54;;;;;;;;;;;14.50;72.20;;;;;;10211091;28;89690;-62
2023/01/06 09:43:56;;;;;;;;;;;14.50;72.00;;;;;;10210775;28;88726;-62
2023/01/06 09:49:16;;;;;;;;;;;14.50;72.00;;;;;;10211816;28;88454;-62
2023/01/06 09:54:27;;;;;;;;;;;14.60;72.00;;;;;;10210591;28;88964;-62
2023/01/06 09:59:33;;;;;;;;;;;14.60;71.90;;;;;;10192548;28;88818;-62
2023/01/06 10:04:34;;;;;;;;;;;14.60;71.80;;;;;;10208785;28;88876;-62
2023/01/06 10:09:52;;;;;;;;;;;14.70;71.80;;;;;;10210905;28;89319;-62
2023/01/06 10:15:02;;;;;;;;;;;14.70;71.70;;;;;;10210289;28;89094;-62
2023/01/06 10:20:04;;;;;;;;;;;14.70;71.60;;;;;;10208487;28;89132;-62
2023/01/06 10:25:16;;;;;;;;;;;14.70;71.60;;;;;;10209625;28;89131;-62
2023/01/06 10:30:21;;;;;;;;;;;14.70;71.60;;;;;;10210219;28;90405;-62
2023/01/06 10:35:24;;;;;;;;;;;14.70;71.60;;;;;;10208606;28;89044;-62
2023/01/06 10:40:28;;;;;;;;;;;14.70;71.60;;;;;;10210218;28;89315;-62
2023/01/06 10:45:36;;;;;;;;;;;14.70;71.60;;;;;;10198436;28;89113;-62
2023/01/06 10:50:38;;;;;;;;;;;14.70;71.60;;;;;;10215443;28;89557;-62
2023/01/06 10:55:48;;;;;;;;;;;14.60;71.60;;;;;;10215833;28;91087;-62
2023/01/06 11:01:04;;;;;;;;;;;14.60;71.50;;;;;;10215495;28;88971;-62
2023/01/06 11:06:07;;;;;;;;;;;14.60;71.50;;;;;;10213667;28;88561;-62
2023/01/06 11:11:10;;;;;;;;;;;14.60;71.50;;;;;;10215479;28;89143;-62
2023/01/06 11:16:29;;;;;;;;;;;14.60;71.60;;;;;;10215633;28;89100;-61
2023/01/06 11:21:42;;;;;;;;;;;14.60;71.60;;;;;;10215556;28;88602;-62
2023/01/06 11:26:50;;;;;;;;;;;14.60;71.70;;;;;;10214227;28;89000;-62
2023/01/06 11:31:52;;;;;;;;;;;14.60;71.70;;;;;;10215840;28;87758;-62
2023/01/06 11:36:53;;;;;;;;;;;14.50;71.50;;;;;;10214811;28;88546;-62
2023/01/06 11:42:00;;;;;;;;;;;14.60;71.60;;;;;;10214100;28;89385;-62
2023/01/06 11:47:06;;;;;;;;;;;14.60;71.60;;;;;;10214103;28;89937;-61
2023/01/06 11:52:18;;;;;;;;;;;14.50;71.70;;;;;;10213396;28;89182;-62
2023/01/06 11:57:28;;;;;;;;;;;14.60;71.70;;;;;;10214302;28;90288;-61
2023/01/06 12:02:36;;;;;;;;;;;14.60;71.80;;;;;;10214217;28;90060;-62
2023/01/06 12:07:42;;;;;;;;;;;14.60;71.80;;;;;;10214164;28;88115;-62
2023/01/06 12:12:43;;;;;;;;;;;14.60;71.90;;;;;;10215297;28;90050;-61
2023/01/06 12:17:50;;;;;;;;;;;14.50;71.90;;;;;;10214156;28;89835;-62
2023/01/06 12:22:57;;;;;;;;;;;14.60;72.00;;;;;;10196764;28;89309;-62
2023/01/06 12:28:01;;;;;;;;;;;14.50;72.90;;;;;;10213866;28;88606;-62
2023/01/06 12:33:06;;;;;;;;;;;14.50;72.80;;;;;;10213998;28;91490;-62
2023/01/06 12:38:34;;;;;;;;;;;14.50;71.90;;;;;;10211401;28;90719;-62
2023/01/06 12:43:37;;;;;;;;;;;14.50;71.90;;;;;;10189090;28;90421;-62
2023/01/06 12:48:48;;;;;;;;;;;14.50;71.90;;;;;;10212209;28;88935;-62
2023/01/06 12:53:56;;;;;;;;;;;14.50;71.80;;;;;;10213034;28;88317;-61
2023/01/06 12:58:58;;;;;;;;;;;14.50;71.80;;;;;;10212388;28;88895;-61
2023/01/06 13:04:06;;;;;;;;;;;14.50;71.80;;;;;;10211526;28;89231;-60
2023/01/06 13:09:11;;;;;;;;;;;14.50;71.80;;;;;;10211733;28;89931;-61
2023/01/06 13:14:19;;;;;;;;;;;14.50;71.80;;;;;;10212894;28;89333;-61
2023/01/06 13:19:26;;;;;;;;;;;14.50;71.90;;;;;;10211534;28;90152;-61
2023/01/06 13:24:40;;;;;;;;;;;14.50;71.80;;;;;;10211546;28;88332;-61
2023/01/06 13:30:01;;;;;;;;;;;14.50;71.80;;;;;;10210673;28;90477;-60
2023/01/06 13:35:03;;;;;;;;;;;14.50;71.80;;;;;;10211299;28;89144;-61
2023/01/06 13:40:08;;;;;;;;;;;14.50;71.70;;;;;;10210882;28;89174;-61
2023/01/06 13:45:15;;;;;;;;;;;14.50;71.80;;;;;;10210488;28;89041;-61
2023/01/06 13:50:18;;;;;;;;;;;14.50;71.70;;;;;;10211040;28;89951;-60
2023/01/06 13:55:21;;;;;;;;;;;14.50;71.60;;;;;;10209508;28;88410;-60
2023/01/06 14:00:25;;;;;;;;;;;14.60;71.60;;;;;;10209742;28;88765;-63
2023/01/06 14:05:27;;;;;;;;;;;14.60;71.50;;;;;;10210851;28;88377;-61
2023/01/06 14:10:36;;;;;;;;;;;14.60;71.50;;;;;;10210301;28;90077;-62
2023/01/06 14:15:54;;;;;;;;;;;14.60;71.50;;;;;;10210338;28;88919;-62
2023/01/06 14:21:13;;;;;;;;;;;14.60;71.50;;;;;;10215094;28;90681;-62
2023/01/06 14:26:15;;;;;;;;;;;14.60;71.40;;;;;;10217238;28;89226;-62
2023/01/06 14:31:23;;;;;;;;;;;14.60;71.50;;;;;;10216799;28;88898;-62
2023/01/06 14:36:26;;;;;;;;;;;14.60;71.50;;;;;;10215871;28;89078;-62
2023/01/06 14:41:29;;;;;;;;;;;14.60;71.40;;;;;;10216020;28;89533;-62
2023/01/06 14:46:36;;;;;;;;;;;14.60;71.40;;;;;;10216142;28;89086;-62
2023/01/06 14:51:40;;;;;;;;;;;14.60;71.40;;;;;;10215819;28;89006;-62
2023/01/06 14:56:50;;;;;;;;;;;14.60;71.40;;;;;;10217788;28;88354;-62
2023/01/06 15:01:56;;;;;;;;;;;14.50;71.40;;;;;;10215280;28;89587;-63
2023/01/06 15:07:04;;;;;;;;;;;14.50;71.40;;;;;;10213457;28;89082;-62
2023/01/06 15:12:22;;;;;;;;;;;14.50;71.40;;;;;;10214477;28;89902;-62
2023/01/06 15:17:24;;;;;;;;;;;14.50;71.40;;;;;;10215482;28;90079;-62
2023/01/06 15:22:26;;;;;;;;;;;14.50;71.40;;;;;;10215604;28;89853;-62
2023/01/06 15:27:28;;;;;;;;;;;14.50;71.40;;;;;;10215008;28;88952;-62
2023/01/06 15:32:31;;;;;;;;;;;14.50;71.40;;;;;;10215432;28;89202;-62
2023/01/06 15:37:33;;;;;;;;;;;14.50;71.50;;;;;;10215062;28;89311;-62
2023/01/06 15:42:35;;;;;;;;;;;14.50;71.40;;;;;;10214141;28;88896;-62
2023/01/06 15:47:40;;;;;;;;;;;14.50;71.30;;;;;;10215008;28;87289;-61
2023/01/06 15:52:50;;;;;;;;;;;14.50;71.40;;;;;;10214234;28;90167;-62
2023/01/06 15:57:58;;;;;;;;;;;14.50;71.40;;;;;;10213464;28;89144;-61
2023/01/06 16:03:00;;;;;;;;;;;14.50;71.40;;;;;;10213222;28;89844;-62
2023/01/06 16:08:03;;;;;;;;;;;14.50;71.30;;;;;;10213045;28;89103;-61
2023/01/06 16:13:16;;;;;;;;;;;14.40;71.30;;;;;;10214008;28;88527;-62
2023/01/06 16:18:44;;;;;;;;;;;14.50;71.20;;;;;;10213001;28;88854;-62
2023/01/06 16:23:48;;;;;;;;;;;14.50;71.20;;;;;;10193196;28;90025;-62
2023/01/06 16:28:51;;;;;;;;;;;14.50;71.10;;;;;;10214331;28;88572;-62
2023/01/06 16:33:53;;;;;;;;;;;14.50;71.00;;;;;;10212357;28;90067;-62
2023/01/06 16:38:55;;;;;;;;;;;14.50;71.00;;;;;;10214101;28;88127;-61
2023/01/06 16:43:57;;;;;;;;;;;14.50;70.80;;;;;;10212648;28;90199;-62
2023/01/06 16:49:00;;;;;;;;;;;14.50;70.80;;;;;;10212643;28;90427;-62
2023/01/06 16:54:07;;;;;;;;;;;14.50;70.80;;;;;;10211988;28;90408;-62
2023/01/06 16:59:11;;;;;;;;;;;14.50;70.80;;;;;;10211683;28;89316;-62
2023/01/06 17:04:13;;;;;;;;;;;14.60;70.80;;;;;;10211479;28;90033;-62
2023/01/06 17:09:17;;;;;;;;;;;14.50;70.80;;;;;;10212036;28;90032;-62
2023/01/06 17:14:20;;;;;;;;;;;14.50;70.80;;;;;;10211798;28;88830;-61
2023/01/06 17:19:25;;;;;;;;;;;14.50;70.70;;;;;;10194027;28;89104;-62
2023/01/06 17:24:28;;;;;;;;;;;14.50;70.60;;;;;;10193504;28;88909;-62
2023/01/06 17:29:34;;;;;;;;;;;14.50;70.70;;;;;;10213005;28;89666;-62
2023/01/06 17:34:36;;;;;;;;;;;14.50;70.60;;;;;;10211803;28;90101;-61
2023/01/06 17:39:39;;;;;;;;;;;14.50;70.70;;;;;;10210998;28;88225;-61
2023/01/06 17:44:54;;;;;;;;;;;14.50;70.60;;;;;;10211401;28;90048;-62
2023/01/06 17:49:58;;;;;;;;;;;14.50;70.70;;;;;;10193052;28;89366;-62
2023/01/06 18:00:29;;;;;;;;;;;14.50;70.60;;;;;;10217369;28;89293;-62
2023/01/06 18:05:33;;;;;;;;;;;14.40;70.60;;;;;;10218034;28;89104;-62
2023/01/06 18:10:37;;;;;;;;;;;14.40;70.60;;;;;;10217726;28;88785;-62
2023/01/06 18:15:38;;;;;;;;;;;14.40;70.60;;;;;;10217637;28;90034;-62
2023/01/06 18:20:44;;;;;;;;;;;14.40;70.60;;;;;;10200721;28;87871;-62
2023/01/06 18:25:46;;;;;;;;;;;14.40;70.50;;;;;;10217881;28;88928;-62
2023/01/06 18:30:50;;;;;;;;;;;14.40;70.30;;;;;;10216511;28;88152;-62
2023/01/06 18:35:56;;;;;;;;;;;14.50;70.40;;;;;;10216143;28;89759;-62
2023/01/06 18:40:58;;;;;;;;;;;14.60;70.30;;;;;;10198693;28;89037;-62
2023/01/06 18:46:00;;;;;;;;;;;14.80;70.10;;;;;;10215856;28;90069;-62
2023/01/06 18:51:05;;;;;;;;;;;15.00;69.60;;;;;;10216006;28;90584;-62
2023/01/06 18:56:22;;;;;;;;;;;15.30;69.10;;;;;;10199372;28;90220;-62
2023/01/06 19:01:24;;;;;;;;;;;15.50;68.60;;;;;;10215719;28;90267;-62
2023/01/06 19:06:37;;;;;;;;;;;15.70;68.10;;;;;;10214770;28;88160;-62
2023/01/06 19:11:39;;;;;;;;;;;15.90;67.80;;;;;;10216877;28;89313;-62
2023/01/06 19:16:46;;;;;;;;;;;16.00;67.50;;;;;;10215610;28;89645;-62
2023/01/06 19:21:47;;;;;;;;;;;16.10;67.40;;;;;;10213425;28;90392;-62
2023/01/06 19:26:49;;;;;;;;;;;16.10;67.10;;;;;;10213728;28;92715;-62
2023/01/06 19:31:53;;;;;;;;;;;16.20;67.00;;;;;;10214737;28;88736;-62
2023/01/06 19:36:57;;;;;;;;;;;16.30;67.10;;;;;;10215165;28;89956;-62
2023/01/06 19:42:10;;;;;;;;;;;16.40;66.80;;;;;;10214506;28;90179;-62
2023/01/06 19:47:16;;;;;;;;;;;16.60;66.70;;;;;;10214743;28;88450;-62
2023/01/06 19:52:30;;;;;;;;;;;16.60;66.40;;;;;;10214754;28;89256;-62
2023/01/06 19:57:35;;;;;;;;;;;16.60;66.50;;;;;;10214727;28;89879;-63
2023/01/06 20:02:41;;;;;;;;;;;16.60;66.40;;;;;;10214092;28;89341;-61
2023/01/06 20:07:43;;;;;;;;;;;16.60;66.50;;;;;;10195666;28;90160;-62
2023/01/06 20:12:45;;;;;;;;;;;16.70;66.60;;;;;;10210145;28;90207;-63
2023/01/06 20:17:47;;;;;;;;;;;16.90;66.60;;;;;;10206404;28;90216;-62
2023/01/06 20:22:49;;;;;;;;;;;17.00;66.50;;;;;;10191037;28;89901;-62
2023/01/06 20:27:50;;;;;;;;;;;17.00;66.40;;;;;;10209604;28;89548;-62
2023/01/06 20:32:52;;;;;;;;;;;17.10;66.60;;;;;;10211229;28;90057;-62
2023/01/06 20:37:54;;;;;;;;;;;17.10;66.70;;;;;;10212887;28;88138;-62
2023/01/06 20:42:56;;;;;;;;;;;17.10;66.70;;;;;;10211949;28;89281;-61
2023/01/06 20:47:58;;;;;;;;;;;17.10;66.70;;;;;;10210899;28;90077;-61
2023/01/06 20:52:59;;;;;;;;;;;17.20;66.90;;;;;;10212890;28;89480;-61
2023/01/06 20:58:01;;;;;;;;;;;17.20;66.80;;;;;;10210418;28;89408;-62
2023/01/06 21:03:03;;;;;;;;;;;17.30;66.70;;;;;;10210767;28;88847;-62
2023/01/06 21:08:05;;;;;;;;;;;17.40;66.80;;;;;;10211369;28;90952;-62
2023/01/06 21:13:07;;;;;;;;;;;17.40;66.90;;;;;;10211843;28;89303;-62
2023/01/06 21:18:08;;;;;;;;;;;17.30;67.00;;;;;;10193635;28;89232;-62
2023/01/06 21:23:10;;;;;;;;;;;17.30;67.20;;;;;;10193713;28;89060;-62
2023/01/06 21:28:12;;;;;;;;;;;17.30;67.60;;;;;;10211877;28;90122;-62
2023/01/06 21:33:14;;;;;;;;;;;17.30;67.70;;;;;;10210701;28;89139;-62
2023/01/06 21:38:15;;;;;;;;;;;17.30;67.70;;;;;;10211772;28;89290;-62
2023/01/06 21:43:19;;;;;;;;;;;17.30;67.70;;;;;;10211885;28;108601;-62
2023/01/06 21:48:24;;;;;;;;;;;17.40;67.70;;;;;;10194741;28;90124;-62
2023/01/06 21:53:29;;;;;;;;;;;17.50;67.70;;;;;;10210586;28;89046;-62
2023/01/06 21:58:31;;;;;;;;;;;17.60;67.50;;;;;;10192917;28;89721;-62
2023/01/06 22:03:33;;;;;;;;;;;17.60;68.60;;;;;;10209738;28;88935;-62
2023/01/06 22:08:35;;;;;;;;;;;17.60;67.80;;;;;;10210019;28;89247;-62
2023/01/06 22:13:38;;;;;;;;;;;17.50;67.80;;;;;;10210546;28;88772;-62
2023/01/06 22:18:40;;;;;;;;;;;17.40;67.90;;;;;;10210274;28;88698;-62
2023/01/06 22:23:42;;;;;;;;;;;17.30;68.30;;;;;;10192949;28;89137;-61
2023/01/06 22:28:43;;;;;;;;;;;17.20;68.60;;;;;;10210197;28;88113;-61
2023/01/06 22:33:45;;;;;;;;;;;17.10;68.90;;;;;;10211525;28;88095;-60
2023/01/06 22:38:47;;;;;;;;;;;17.00;69.80;;;;;;10212483;28;90088;-62
2023/01/06 22:43:48;;;;;;;;;;;17.00;70.00;;;;;;10216590;28;90067;-61
2023/01/06 22:48:51;;;;;;;;;;;17.00;70.10;;;;;;10216398;28;89628;-61
2023/01/06 22:53:53;;;;;;;;;;;16.80;70.00;;;;;;10217610;28;90057;-61
2023/01/06 22:58:55;;;;;;;;;;;16.70;70.00;;;;;;10216623;28;89671;-62
2023/01/06 23:03:58;;;;;;;;;;;16.60;70.10;;;;;;10215089;28;88925;-62
2023/01/06 23:09:00;;;;;;;;;;;16.50;70.20;;;;;;10217041;28;89974;-62
2023/01/06 23:14:02;;;;;;;;;;;16.50;70.50;;;;;;10216237;28;88933;-62
2023/01/06 23:19:04;;;;;;;;;;;16.40;70.50;;;;;;10216595;28;89197;-62
2023/01/06 23:24:06;;;;;;;;;;;16.30;70.70;;;;;;10216801;28;89408;-62
2023/01/06 23:29:08;;;;;;;;;;;16.30;70.80;;;;;;10215998;28;90440;-62
2023/01/06 23:34:12;;;;;;;;;;;16.20;70.90;;;;;;10214648;28;89049;-62
2023/01/06 23:39:15;;;;;;;;;;;16.20;71.00;;;;;;10214138;28;88876;-62
2023/01/06 23:44:17;;;;;;;;;;;16.10;71.00;;;;;;10216105;28;90105;-62
2023/01/06 23:49:19;;;;;;;;;;;16.10;71.20;;;;;;10196974;28;89462;-62
2023/01/06 23:54:21;;;;;;;;;;;16.00;71.20;;;;;;10214606;28;88841;-62
2023/01/06 23:59:23;;;;;;;;;;;16.00;71.20;;;;;;10214577;28;90029;-62
